.
WxDataArchive / Data Records for 2014-03-02
2014-03-01 March 2014 2014-03-03

Data Records for Sunday, 02 March 2014

Time	Temp	Chill	HIndex	Humid	Dewpt	 Wind 	HiWind	WindDir	Rain 	Barom
-----	----	-----	------	-----	-----	------	------	-------	-----	-----
00:00	20.3	20.3	20.3	87	17.1	0	2	292	0.00	30.259 
00:05	20.3	20.3	20.3	87	17.1	0	3	292	0.00	30.259 
00:10	20.3	20.3	20.3	87	17.1	0	1	292	0.00	30.259 
00:15	20.3	20.3	20.3	87	17.1	0	2	292	0.00	30.252 
00:20	20.2	20.2	20.2	87	17.0	0	2	292	0.00	30.252 
00:25	20.2	20.2	20.2	87	17.0	0	1	292	0.00	30.252 
00:30	20.0	20.0	20.0	87	16.8	0	1	292	0.00	30.250 
00:35	19.9	19.9	19.9	87	16.7	0	1	292	0.00	30.250 
00:40	19.7	19.7	19.7	87	16.5	0	2	292	0.00	30.250 
00:45	19.5	19.5	19.5	87	16.3	0	3	292	0.00	30.236 
00:50	19.4	19.4	19.4	87	16.2	0	3	292	0.00	30.236 
00:55	19.4	19.4	19.4	86	15.9	0	2	315	0.00	30.236 
01:00	19.2	19.2	19.2	86	15.7	0	2	292	0.00	30.237 
01:05	19.2	19.2	19.2	86	15.7	0	1	292	0.00	30.237 
01:10	19.2	19.2	19.2	86	15.7	0	2	292	0.00	30.237 
01:15	19.2	19.2	19.2	86	15.7	0	2	292	0.00	30.223 
01:20	19.2	19.2	19.2	86	15.7	0	1	292	0.00	30.223 
01:25	19.2	19.2	19.2	86	15.7	0	2	315	0.00	30.223 
01:30	19.2	19.2	19.2	86	15.7	0	2	315	0.00	30.243 
01:35	19.2	19.2	19.2	86	15.7	0	3	292	0.00	30.243 
01:40	19.2	19.2	19.2	85	15.4	1	3	315	0.00	30.243 
01:45	19.1	19.1	19.1	85	15.3	1	3	315	0.00	30.242 
01:50	19.1	19.1	19.1	85	15.3	1	3	315	0.00	30.242 
01:55	18.9	18.9	18.9	85	15.2	1	3	315	0.00	30.242 
02:00	18.9	18.9	18.9	85	15.2	0	4	338	0.00	30.254 
02:05	18.9	18.9	18.9	84	14.9	1	3	292	0.00	30.254 
02:10	18.9	18.9	18.9	84	14.9	1	5	338	0.00	30.254 
02:15	18.9	18.9	18.9	84	14.9	0	2	315	0.00	30.264 
02:20	18.9	18.9	18.9	84	14.9	0	3	315	0.00	30.264 
02:25	18.8	18.8	18.8	84	14.8	1	4	0	0.00	30.264 
02:30	18.8	18.8	18.8	85	15.1	1	2	270	0.00	30.272 
02:35	18.6	18.6	18.6	85	14.9	1	3	315	0.00	30.272 
02:40	18.6	18.6	18.6	85	14.9	0	3	338	0.00	30.272 
02:45	18.4	18.4	18.4	85	14.7	0	2	292	0.00	30.272 
02:50	18.4	18.4	18.4	85	14.7	0	2	292	0.00	30.272 
02:55	18.3	18.3	18.3	85	14.6	0	1	315	0.00	30.272 
03:00	18.3	18.3	18.3	85	14.6	0	2	315	0.00	30.260 
03:05	18.1	18.1	18.1	85	14.4	0	2	315	0.00	30.260 
03:10	18.0	18.0	18.0	85	14.3	1	3	315	0.00	30.260 
03:15	18.0	18.0	18.0	85	14.3	0	3	315	0.00	30.255 
03:20	17.8	17.8	17.8	85	14.1	0	2	315	0.00	30.255 
03:25	17.7	17.7	17.7	85	14.0	0	2	315	0.00	30.255 
03:30	17.5	17.5	17.5	85	13.8	1	3	315	0.00	30.245 
03:35	17.5	17.5	17.5	85	13.8	0	2	315	0.00	30.245 
03:40	17.3	17.3	17.3	85	13.6	1	3	315	0.00	30.245 
03:45	17.0	17.0	17.0	85	13.3	0	2	338	0.00	30.244 
03:50	16.9	16.9	16.9	85	13.2	0	2	338	0.00	30.244 
03:55	16.9	16.9	16.9	85	13.2	1	3	315	0.00	30.244 
04:00	16.7	16.7	16.7	85	13.0	1	2	315	0.00	30.243 
04:05	16.7	16.7	16.7	85	13.0	0	3	315	0.00	30.243 
04:10	16.7	16.7	16.7	85	13.0	1	2	315	0.00	30.243 
04:15	16.7	16.7	16.7	85	13.0	0	2	315	0.00	30.261 
04:20	16.5	16.5	16.5	85	12.8	1	4	338	0.00	30.261 
04:25	16.5	16.5	16.5	85	12.8	0	4	68	0.00	30.261 
04:30	16.5	16.5	16.5	85	12.8	0	3	292	0.00	30.269 
04:35	16.4	16.4	16.4	85	12.7	1	2	270	0.00	30.269 
04:40	16.2	16.2	16.2	84	12.2	1	4	270	0.00	30.269 
04:45	16.1	16.1	16.1	84	12.1	0	2	270	0.00	30.266 
04:50	15.9	15.9	15.9	84	11.9	0	3	270	0.00	30.266 
04:55	15.9	15.9	15.9	84	11.9	0	1	292	0.00	30.266 
05:00	15.9	15.9	15.9	85	12.2	0	1	292	0.00	30.264 
05:05	15.7	15.7	15.7	85	12.0	0	2	292	0.00	30.264 
05:10	15.7	15.7	15.7	85	12.0	0	3	292	0.00	30.264 
05:15	15.6	15.6	15.6	85	11.9	1	3	45	0.00	30.263 
05:20	15.6	15.6	15.6	85	11.9	0	3	338	0.00	30.263 
05:25	15.4	15.4	15.4	85	11.7	1	3	338	0.00	30.263 
05:30	15.4	15.4	15.4	85	11.7	0	1	338	0.00	30.277 
05:35	15.4	15.4	15.4	85	11.7	0	2	338	0.00	30.277 
05:40	15.2	15.2	15.2	85	11.5	0	1	68	0.00	30.277 
05:45	15.2	15.2	15.2	85	11.5	0	2	68	0.00	30.287 
05:50	15.2	15.2	15.2	85	11.5	0	1	68	0.00	30.287 
05:55	15.1	15.1	15.1	85	11.4	0	1	68	0.00	30.287 
06:00	15.1	15.1	15.1	85	11.4	0	1	68	0.00	30.282 
06:05	15.1	15.1	15.1	85	11.4	0	2	68	0.00	30.282 
06:10	15.1	15.1	15.1	85	11.4	0	2	68	0.00	30.282 
06:15	15.1	15.1	15.1	85	11.4	0	2	68	0.00	30.288 
06:20	14.9	14.9	14.9	85	11.2	0	2	68	0.00	30.288 
06:25	14.9	14.9	14.9	85	11.2	0	1	68	0.00	30.288 
06:30	14.9	14.9	14.9	85	11.2	0	2	68	0.00	30.276 
06:35	14.9	14.9	14.9	85	11.2	0	2	45	0.00	30.276 
06:40	14.9	14.9	14.9	85	11.2	0	1	45	0.00	30.276 
06:45	14.9	14.9	14.9	85	11.2	0	1	45	0.00	30.283 
06:50	14.8	14.8	14.8	85	11.1	0	0	---	0.00	30.283 
06:55	14.8	14.8	14.8	85	11.1	0	1	45	0.00	30.283 
07:00	14.8	14.8	14.8	85	11.1	0	1	45	0.00	30.278 
07:05	14.8	14.8	14.8	85	11.1	0	2	45	0.00	30.278 
07:10	14.8	14.8	14.8	85	11.1	0	1	45	0.00	30.278 
07:15	14.8	14.8	14.8	85	11.1	0	1	45	0.00	30.284 
07:20	14.8	14.8	14.8	85	11.1	0	1	45	0.00	30.284 
07:25	14.8	14.8	14.8	85	11.1	0	1	45	0.00	30.284 
07:30	14.6	14.6	14.6	85	10.9	0	2	22	0.00	30.275 
07:35	14.8	14.8	14.8	85	11.1	0	1	22	0.00	30.275 
07:40	14.8	14.8	14.8	85	11.1	0	1	22	0.00	30.275 
07:45	14.8	14.8	14.8	85	11.1	0	1	22	0.00	30.272 
07:50	14.8	14.8	14.8	85	11.1	0	1	22	0.00	30.272 
07:55	14.8	14.8	14.8	85	11.1	0	2	22	0.00	30.272 
08:00	14.8	14.8	14.8	85	11.1	0	2	45	0.00	30.271 
08:05	14.8	14.8	14.8	85	11.1	0	2	22	0.00	30.271 
08:10	14.9	14.9	14.9	85	11.2	0	1	22	0.00	30.271 
08:15	14.9	14.9	14.9	85	11.2	0	1	22	0.00	30.286 
08:20	15.1	15.1	15.1	85	11.4	0	1	22	0.00	30.286 
08:25	15.2	15.2	15.2	85	11.5	0	1	68	0.00	30.286 
08:30	15.2	15.2	15.2	85	11.5	0	2	68	0.00	30.285 
08:35	15.4	15.4	15.4	85	11.7	0	1	68	0.00	30.285 
08:40	15.4	15.4	15.4	85	11.7	0	1	68	0.00	30.285 
08:45	15.6	15.6	15.6	85	11.9	0	2	68	0.00	30.287 
08:50	15.6	15.6	15.6	84	11.6	0	1	68	0.00	30.287 
08:55	15.6	15.6	15.6	84	11.6	0	2	0	0.00	30.287 
09:00	15.6	15.6	15.6	84	11.6	0	3	90	0.00	30.292 
09:05	15.6	15.6	15.6	84	11.6	0	2	90	0.00	30.292 
09:10	15.6	15.6	15.6	83	11.4	0	4	112	0.00	30.292 
09:15	15.6	15.6	15.6	83	11.4	0	2	22	0.00	30.305 
09:20	15.7	15.7	15.7	83	11.5	0	3	90	0.00	30.305 
09:25	15.9	15.9	15.9	83	11.7	0	2	90	0.00	30.305 
09:30	16.1	16.1	16.1	83	11.9	0	2	90	0.00	30.314 
09:35	16.2	16.2	16.2	82	11.7	0	3	90	0.00	30.314 
09:40	16.4	16.4	16.4	81	11.6	1	4	68	0.00	30.314 
09:45	16.5	16.5	16.5	81	11.7	0	2	45	0.00	30.317 
09:50	16.7	16.7	16.7	81	11.9	0	4	45	0.00	30.317 
09:55	16.9	16.9	16.9	80	11.8	1	4	90	0.00	30.317 
10:00	17.0	17.0	17.0	80	11.9	0	3	90	0.00	30.314 
10:05	16.9	16.9	16.9	78	11.3	2	5	90	0.00	30.314 
10:10	16.5	16.5	16.5	77	10.6	2	6	112	0.00	30.314 
10:15	16.4	16.4	16.4	77	10.5	1	4	68	0.00	30.323 
10:20	16.1	16.1	16.1	76	9.9	2	6	112	0.00	30.323 
10:25	16.1	16.1	16.1	77	10.2	3	6	90	0.00	30.323 
10:30	16.2	16.2	16.2	77	10.3	1	5	90	0.00	30.309 
10:35	16.4	16.4	16.4	77	10.5	2	7	90	0.00	30.309 
10:40	16.5	16.5	16.5	76	10.3	1	6	90	0.00	30.309 
10:45	16.1	16.1	16.1	75	9.6	3	11	90	0.00	30.309 
10:50	15.6	15.6	15.6	75	9.1	3	7	90	0.00	30.309 
10:55	15.7	15.7	15.7	76	9.5	1	4	90	0.00	30.309 
11:00	15.7	15.7	15.7	74	8.9	3	7	90	0.00	30.311 
11:05	16.1	16.1	16.1	74	9.3	1	6	22	0.00	30.311 
11:10	15.7	15.7	15.7	72	8.3	3	6	90	0.00	30.311 
11:15	15.9	15.9	15.9	73	8.8	1	3	90	0.00	30.317 
11:20	15.7	15.7	15.7	71	8.0	3	6	112	0.00	30.317 
11:25	15.9	15.9	15.9	72	8.5	2	5	90	0.00	30.317 
11:30	16.2	16.2	16.2	71	8.5	2	5	90	0.00	30.318 
11:35	16.2	16.2	16.2	71	8.5	1	5	112	0.00	30.318 
11:40	16.4	16.4	16.4	72	9.0	1	5	90	0.00	30.318 
11:45	16.2	16.2	16.2	70	8.2	2	6	90	0.00	30.319 
11:50	16.1	16.1	16.1	70	8.1	2	6	112	0.00	30.319 
11:55	16.1	16.1	16.1	70	8.1	3	9	112	0.00	30.319 
12:00	15.9	15.9	15.9	71	8.2	2	5	90	0.00	30.322 
12:05	16.5	16.5	16.5	72	9.1	1	4	90	0.00	30.322 
12:10	16.7	16.7	16.7	71	9.0	2	4	68	0.00	30.322 
12:15	16.9	16.9	16.9	69	8.5	1	5	90	0.00	30.319 
12:20	17.2	17.2	17.2	71	9.4	1	4	90	0.00	30.319 
12:25	16.9	16.9	16.9	68	8.2	3	5	112	0.00	30.319 
12:30	16.7	16.7	16.7	69	8.3	1	5	112	0.00	30.317 
12:35	17.3	17.3	17.3	69	8.9	1	3	112	0.00	30.317 
12:40	17.8	17.8	17.8	69	9.4	1	3	22	0.00	30.317 
12:45	18.0	18.0	18.0	68	9.2	1	2	68	0.00	30.318 
12:50	18.1	18.1	18.1	67	9.0	1	4	0	0.00	30.318 
12:55	18.1	18.1	18.1	67	9.0	1	3	90	0.00	30.318 
13:00	18.0	18.0	18.0	66	8.6	2	5	90	0.00	30.309 
13:05	17.7	17.7	17.7	65	8.0	2	8	90	0.00	30.309 
13:10	17.2	17.2	17.2	67	8.2	2	5	90	0.00	30.309 
13:15	16.9	16.9	16.9	68	8.2	3	6	90	0.00	30.303 
13:20	17.2	17.2	17.2	68	8.5	1	4	68	0.00	30.303 
13:25	17.2	17.2	17.2	67	8.2	1	5	90	0.00	30.303 
13:30	17.2	17.2	17.2	67	8.2	2	4	90	0.00	30.297 
13:35	17.0	17.0	17.0	67	8.0	2	5	90	0.00	30.297 
13:40	17.5	17.5	17.5	68	8.8	0	3	90	0.01	30.297 
13:45	17.8	17.8	17.8	66	8.4	2	6	90	0.00	30.288 
13:50	18.0	18.0	18.0	67	8.9	1	5	90	0.00	30.288 
13:55	18.4	18.4	18.4	66	9.0	0	2	90	0.00	30.288 
14:00	18.8	18.8	18.8	65	9.0	1	3	90	0.00	30.297 
14:05	19.1	19.1	19.1	63	8.6	0	2	90	0.00	30.297 
14:10	19.2	19.2	19.2	63	8.7	0	1	90	0.00	30.297 
14:15	18.9	18.9	18.9	62	8.1	0	3	90	0.00	30.300 
14:20	18.8	18.8	18.8	61	7.6	1	3	90	0.00	30.300 
14:25	18.8	18.8	18.8	62	8.0	0	2	90	0.00	30.300 
14:30	19.1	19.1	19.1	61	7.9	0	2	90	0.00	30.302 
14:35	18.9	18.9	18.9	61	7.7	1	4	90	0.00	30.302 
14:40	18.6	18.6	18.6	61	7.4	1	3	68	0.01	30.302 
14:45	18.6	18.6	18.6	61	7.4	1	4	90	0.00	30.294 
14:50	18.0	18.0	18.0	60	6.5	3	6	90	0.00	30.294 
14:55	18.1	18.1	18.1	63	7.7	1	4	112	0.00	30.294 
15:00	18.3	18.3	18.3	62	7.5	2	4	112	0.00	30.287 
15:05	18.1	18.1	18.1	62	7.3	1	3	112	0.01	30.287 
15:10	18.1	18.1	18.1	63	7.7	2	5	90	0.00	30.287 
15:15	17.5	17.5	17.5	64	7.4	3	6	90	0.00	30.289 
15:20	17.2	17.2	17.2	65	7.5	2	4	90	0.00	30.289 
15:25	17.3	17.3	17.3	65	7.6	2	5	90	0.00	30.289 
15:30	17.3	17.3	17.3	65	7.6	2	4	90	0.00	30.284 
15:35	17.2	17.2	17.2	65	7.5	3	5	90	0.00	30.284 
15:40	17.0	17.0	17.0	66	7.6	2	6	90	0.00	30.284 
15:45	17.0	17.0	17.0	66	7.6	2	5	90	0.00	30.287 
15:50	17.0	17.0	17.0	66	7.6	2	5	90	0.00	30.287 
15:55	16.9	16.9	16.9	66	7.5	2	5	90	0.00	30.287 
16:00	16.5	16.5	16.5	67	7.5	3	5	90	0.00	30.285 
16:05	16.4	16.4	16.4	66	7.1	3	5	90	0.00	30.285 
16:10	16.2	16.2	16.2	67	7.2	3	9	90	0.00	30.285 
16:15	16.1	16.1	16.1	67	7.1	1	4	90	0.00	30.291 
16:20	16.1	16.1	16.1	67	7.1	2	4	90	0.00	30.291 
16:25	15.9	15.9	15.9	67	6.9	3	6	90	0.00	30.291 
16:30	15.9	15.9	15.9	68	7.2	2	3	90	0.00	30.291 
16:35	15.9	15.9	15.9	67	6.9	2	5	90	0.00	30.291 
16:40	15.9	15.9	15.9	67	6.9	1	3	90	0.00	30.291 
16:45	15.9	15.9	15.9	67	6.9	2	4	90	0.00	30.296 
16:50	16.1	16.1	16.1	68	7.4	1	4	90	0.00	30.296 
16:55	16.2	16.2	16.2	67	7.2	1	4	90	0.00	30.296 
17:00	16.2	16.2	16.2	67	7.2	1	2	90	0.00	30.306 
17:05	16.2	16.2	16.2	65	6.5	0	2	90	0.00	30.306 
17:10	16.1	16.1	16.1	65	6.4	1	4	90	0.00	30.306 
17:15	15.9	15.9	15.9	65	6.2	1	3	90	0.00	30.307 
17:20	15.7	15.7	15.7	65	6.1	1	5	90	0.00	30.307 
17:25	15.7	15.7	15.7	65	6.1	1	4	90	0.00	30.307 
17:30	15.7	15.7	15.7	65	6.1	1	3	90	0.00	30.299 
17:35	15.6	15.6	15.6	66	6.3	1	2	90	0.00	30.299 
17:40	15.6	15.6	15.6	65	6.0	1	4	90	0.00	30.299 
17:45	15.6	15.6	15.6	66	6.3	1	5	90	0.00	30.287 
17:50	15.6	15.6	15.6	67	6.6	0	2	90	0.00	30.287 
17:55	15.4	15.4	15.4	66	6.1	1	4	90	0.00	30.287 
18:00	15.2	15.2	15.2	66	5.9	1	2	90	0.00	30.290 
18:05	15.1	15.1	15.1	66	5.8	1	2	90	0.00	30.290 
18:10	15.1	15.1	15.1	66	5.8	0	2	90	0.00	30.290 
18:15	15.1	15.1	15.1	66	5.8	0	1	90	0.00	30.294 
18:20	15.1	15.1	15.1	66	5.8	1	2	90	0.00	30.294 
18:25	15.1	15.1	15.1	67	6.1	0	1	90	0.00	30.294 
18:30	15.1	15.1	15.1	68	6.5	0	1	90	0.00	30.297 
18:35	14.9	14.9	14.9	68	6.3	0	1	90	0.00	30.297 
18:40	14.9	14.9	14.9	68	6.3	0	1	90	0.00	30.297 
18:45	14.8	14.8	14.8	68	6.2	0	1	90	0.00	30.309 
18:50	14.8	14.8	14.8	69	6.5	0	1	90	0.00	30.309 
18:55	14.6	14.6	14.6	69	6.3	0	0	---	0.00	30.309 
19:00	14.6	14.6	14.6	69	6.3	0	1	90	0.00	30.310 
19:05	14.4	14.4	14.4	69	6.1	0	0	---	0.00	30.310 
19:10	14.4	14.4	14.4	69	6.1	0	1	90	0.00	30.310 
19:15	14.3	14.3	14.3	69	6.0	0	1	90	0.00	30.311 
19:20	14.3	14.3	14.3	69	6.0	0	1	90	0.00	30.311 
19:25	14.3	14.3	14.3	69	6.0	0	0	---	0.00	30.311 
19:30	14.3	14.3	14.3	70	6.3	0	1	90	0.00	30.313 
19:35	14.3	14.3	14.3	69	6.0	0	0	---	0.00	30.313 
19:40	14.3	14.3	14.3	70	6.3	0	1	90	0.00	30.313 
19:45	14.3	14.3	14.3	70	6.3	0	0	---	0.00	30.315 
19:50	14.3	14.3	14.3	69	6.0	0	1	90	0.00	30.315 
19:55	14.3	14.3	14.3	69	6.0	0	0	---	0.00	30.315 
20:00	14.1	14.1	14.1	69	5.8	0	0	---	0.00	30.315 
20:05	14.1	14.1	14.1	69	5.8	0	0	---	0.00	30.315 
20:10	14.1	14.1	14.1	69	5.8	0	0	---	0.00	30.315 
20:15	14.1	14.1	14.1	69	5.8	0	1	90	0.00	30.305 
20:20	14.1	14.1	14.1	69	5.8	0	1	90	0.00	30.305 
20:25	14.1	14.1	14.1	69	5.8	0	0	---	0.00	30.305 
20:30	14.1	14.1	14.1	69	5.8	0	0	---	0.00	30.307 
20:35	14.1	14.1	14.1	69	5.8	0	0	---	0.00	30.307 
20:40	14.1	14.1	14.1	69	5.8	0	0	---	0.00	30.307 
20:45	14.1	14.1	14.1	69	5.8	0	1	90	0.00	30.318 
20:50	14.1	14.1	14.1	68	5.5	0	1	90	0.00	30.318 
20:55	14.1	14.1	14.1	69	5.8	0	0	---	0.00	30.318 
21:00	14.1	14.1	14.1	69	5.8	0	0	---	0.00	30.331 
21:05	14.1	14.1	14.1	69	5.8	0	0	---	0.00	30.331 
21:10	14.1	14.1	14.1	69	5.8	0	0	---	0.00	30.331 
21:15	14.1	14.1	14.1	69	5.8	0	0	---	0.00	30.326 
21:20	14.1	14.1	14.1	69	5.8	0	0	---	0.00	30.326 
21:25	14.0	14.0	14.0	69	5.7	0	0	---	0.00	30.326 
21:30	14.0	14.0	14.0	69	5.7	0	0	---	0.00	30.314 
21:35	14.0	14.0	14.0	69	5.7	0	0	---	0.00	30.314 
21:40	14.0	14.0	14.0	70	6.0	0	0	---	0.00	30.314 
21:45	14.0	14.0	14.0	70	6.0	0	0	---	0.00	30.318 
21:50	14.0	14.0	14.0	70	6.0	0	0	---	0.00	30.318 
21:55	14.1	14.1	14.1	70	6.1	0	0	---	0.00	30.318 
22:00	14.1	14.1	14.1	70	6.1	0	0	---	0.00	30.320 
22:05	14.1	14.1	14.1	71	6.5	0	0	---	0.00	30.320 
22:10	14.1	14.1	14.1	71	6.5	0	0	---	0.00	30.320 
22:15	14.1	14.1	14.1	71	6.5	0	0	---	0.00	30.327 
22:20	14.0	14.0	14.0	72	6.7	0	1	90	0.00	30.327 
22:25	14.0	14.0	14.0	72	6.7	0	0	---	0.00	30.327 
22:30	14.0	14.0	14.0	72	6.7	0	1	90	0.00	30.341 
22:35	14.0	14.0	14.0	72	6.7	0	1	90	0.00	30.341 
22:40	14.0	14.0	14.0	72	6.7	0	2	90	0.00	30.341 
22:45	14.0	14.0	14.0	72	6.7	0	1	90	0.00	30.355 
22:50	14.0	14.0	14.0	72	6.7	0	1	90	0.00	30.355 
22:55	13.8	13.8	13.8	72	6.5	0	2	90	0.00	30.355 
23:00	13.8	13.8	13.8	72	6.5	0	2	90	0.00	30.358 
23:05	13.8	13.8	13.8	71	6.2	0	1	90	0.00	30.358 
23:10	13.6	13.6	13.6	71	6.0	0	1	90	0.00	30.358 
23:15	13.6	13.6	13.6	72	6.3	0	1	90	0.00	30.352 
23:20	13.6	13.6	13.6	72	6.3	0	1	90	0.00	30.352 
23:25	13.5	13.5	13.5	72	6.2	0	1	90	0.00	30.352 
23:30	13.5	13.5	13.5	72	6.2	0	2	90	0.00	30.351 
23:35	13.5	13.5	13.5	72	6.2	0	2	90	0.00	30.351 
23:40	13.5	13.5	13.5	72	6.2	0	2	90	0.00	30.351 
23:45	13.5	13.5	13.5	72	6.2	0	2	90	0.00	30.357 
23:50	13.3	13.3	13.3	71	5.7	0	2	90	0.00	30.357 
23:55	13.3	13.3	13.3	71	5.7	1	3	90	0.00	30.357 

CoCoRaHS
IN-AL-39
A2 Web Hosting
Creative Commons License
GoDaddy
search engine by freefind advanced

loaded 2018-11-20 08:39:47 • last modified 2010-11-18 10:43:29
Privacy PolicyDisclaimer
• wx.awcolley.com is powered by PmWiki v.2002016 •
• all content (unless otherwise noted) © 2018 A W Colley